sensor_id;sensor_type;location;lat;lon;timestamp;pressure;altitude;pressure_sealevel;temperature;humidity
62948;BME280;51940;52.126;-0.994;2022-10-31T00:02:19;100566.39;;;10.73;100.00
62948;BME280;51940;52.126;-0.994;2022-10-31T00:04:45;100567.69;;;10.71;100.00
62948;BME280;51940;52.126;-0.994;2022-10-31T00:07:10;100568.09;;;10.69;100.00
62948;BME280;51940;52.126;-0.994;2022-10-31T00:09:35;100565.60;;;10.68;100.00
62948;BME280;51940;52.126;-0.994;2022-10-31T00:12:01;100567.39;;;10.68;100.00
62948;BME280;51940;52.126;-0.994;2022-10-31T00:14:26;100570.42;;;10.67;100.00
62948;BME280;51940;52.126;-0.994;2022-10-31T00:16:51;100570.61;;;10.67;100.00
62948;BME280;51940;52.126;-0.994;2022-10-31T00:19:17;100568.81;;;10.68;100.00
62948;BME280;51940;52.126;-0.994;2022-10-31T00:21:45;100571.30;;;10.68;100.00
62948;BME280;51940;52.126;-0.994;2022-10-31T00:24:10;100570.06;;;10.69;100.00
62948;BME280;51940;52.126;-0.994;2022-10-31T00:26:36;100569.33;;;10.69;100.00
62948;BME280;51940;52.126;-0.994;2022-10-31T00:29:01;100571.63;;;10.70;100.00
62948;BME280;51940;52.126;-0.994;2022-10-31T00:31:26;100568.06;;;10.70;100.00
62948;BME280;51940;52.126;-0.994;2022-10-31T00:33:52;100566.09;;;10.70;100.00
62948;BME280;51940;52.126;-0.994;2022-10-31T00:36:19;100567.86;;;10.71;100.00
62948;BME280;51940;52.126;-0.994;2022-10-31T00:38:46;100563.38;;;10.71;100.00
62948;BME280;51940;52.126;-0.994;2022-10-31T00:41:14;100561.73;;;10.73;100.00
62948;BME280;51940;52.126;-0.994;2022-10-31T00:43:41;100559.04;;;10.74;100.00
62948;BME280;51940;52.126;-0.994;2022-10-31T00:46:06;100554.21;;;10.75;100.00
62948;BME280;51940;52.126;-0.994;2022-10-31T00:48:32;100550.60;;;10.76;100.00
62948;BME280;51940;52.126;-0.994;2022-10-31T00:50:57;100546.85;;;10.77;100.00
62948;BME280;51940;52.126;-0.994;2022-10-31T00:53:23;100550.04;;;10.79;100.00
62948;BME280;51940;52.126;-0.994;2022-10-31T00:55:48;100547.68;;;10.80;100.00
62948;BME280;51940;52.126;-0.994;2022-10-31T00:58:13;100555.67;;;10.82;100.00
62948;BME280;51940;52.126;-0.994;2022-10-31T01:00:39;100556.55;;;10.82;100.00
62948;BME280;51940;52.126;-0.994;2022-10-31T01:03:05;100560.46;;;10.83;100.00
62948;BME280;51940;52.126;-0.994;2022-10-31T01:05:31;100562.23;;;10.83;100.00
62948;BME280;51940;52.126;-0.994;2022-10-31T01:07:56;100559.55;;;10.83;100.00
62948;BME280;51940;52.126;-0.994;2022-10-31T01:10:22;100554.20;;;10.83;100.00
62948;BME280;51940;52.126;-0.994;2022-10-31T01:12:48;100552.02;;;10.85;100.00
62948;BME280;51940;52.126;-0.994;2022-10-31T01:15:19;100554.86;;;10.86;100.00
62948;BME280;51940;52.126;-0.994;2022-10-31T01:17:47;100560.89;;;10.88;100.00
62948;BME280;51940;52.126;-0.994;2022-10-31T01:20:14;100566.91;;;10.90;100.00
62948;BME280;51940;52.126;-0.994;2022-10-31T01:22:40;100562.95;;;10.91;100.00
62948;BME280;51940;52.126;-0.994;2022-10-31T01:25:07;100562.73;;;10.92;100.00
62948;BME280;51940;52.126;-0.994;2022-10-31T01:27:33;100563.26;;;10.93;100.00
62948;BME280;51940;52.126;-0.994;2022-10-31T01:29:58;100567.01;;;10.93;100.00
62948;BME280;51940;52.126;-0.994;2022-10-31T01:32:24;100567.89;;;10.94;100.00
62948;BME280;51940;52.126;-0.994;2022-10-31T01:34:49;100570.21;;;10.94;100.00
62948;BME280;51940;52.126;-0.994;2022-10-31T01:37:17;100570.02;;;10.95;100.00
62948;BME280;51940;52.126;-0.994;2022-10-31T01:39:43;100556.77;;;10.97;100.00
62948;BME280;51940;52.126;-0.994;2022-10-31T01:42:19;100548.52;;;10.98;100.00
62948;BME280;51940;52.126;-0.994;2022-10-31T01:44:50;100549.89;;;11.00;100.00
62948;BME280;51940;52.126;-0.994;2022-10-31T01:47:21;100546.11;;;11.01;100.00
62948;BME280;51940;52.126;-0.994;2022-10-31T01:49:54;100541.98;;;11.02;100.00
62948;BME280;51940;52.126;-0.994;2022-10-31T01:52:32;100541.63;;;11.02;100.00
62948;BME280;51940;52.126;-0.994;2022-10-31T01:55:03;100536.64;;;11.02;100.00
62948;BME280;51940;52.126;-0.994;2022-10-31T01:57:31;100533.08;;;11.01;100.00
62948;BME280;51940;52.126;-0.994;2022-10-31T02:00:03;100534.33;;;11.01;100.00
62948;BME280;51940;52.126;-0.994;2022-10-31T02:02:30;100531.48;;;11.00;100.00
62948;BME280;51940;52.126;-0.994;2022-10-31T02:04:57;100532.91;;;11.00;100.00
62948;BME280;51940;52.126;-0.994;2022-10-31T02:07:34;100535.23;;;11.00;100.00
62948;BME280;51940;52.126;-0.994;2022-10-31T02:10:02;100533.80;;;11.01;100.00
62948;BME280;51940;52.126;-0.994;2022-10-31T02:12:30;100531.83;;;11.01;100.00
62948;BME280;51940;52.126;-0.994;2022-10-31T02:14:57;100532.70;;;11.03;100.00
62948;BME280;51940;52.126;-0.994;2022-10-31T02:17:22;100536.81;;;11.03;100.00
62948;BME280;51940;52.126;-0.994;2022-10-31T02:23:04;100539.48;;;11.03;100.00
62948;BME280;51940;52.126;-0.994;2022-10-31T02:25:54;100542.34;;;11.03;100.00
62948;BME280;51940;52.126;-0.994;2022-10-31T02:31:33;100539.31;;;11.02;100.00
62948;BME280;51940;52.126;-0.994;2022-10-31T02:36:46;100536.84;;;11.01;100.00
62948;BME280;51940;52.126;-0.994;2022-10-31T02:39:23;100536.30;;;11.01;100.00
62948;BME280;51940;52.126;-0.994;2022-10-31T02:44:36;100537.60;;;10.99;100.00
62948;BME280;51940;52.126;-0.994;2022-10-31T02:49:44;100532.81;;;10.98;100.00
62948;BME280;51940;52.126;-0.994;2022-10-31T02:52:26;100534.06;;;10.97;100.00
62948;BME280;51940;52.126;-0.994;2022-10-31T02:54:52;100534.83;;;10.96;100.00
62948;BME280;51940;52.126;-0.994;2022-10-31T02:57:23;100532.02;;;10.95;100.00
62948;BME280;51940;52.126;-0.994;2022-10-31T03:00:12;100534.34;;;10.93;100.00
62948;BME280;51940;52.126;-0.994;2022-10-31T03:03:02;100531.88;;;10.92;100.00
62948;BME280;51940;52.126;-0.994;2022-10-31T03:05:55;100528.37;;;10.90;100.00
62948;BME280;51940;52.126;-0.994;2022-10-31T03:08:47;100527.54;;;10.87;100.00
62948;BME280;51940;52.126;-0.994;2022-10-31T03:11:17;100526.34;;;10.84;100.00
62948;BME280;51940;52.126;-0.994;2022-10-31T03:13:47;100528.23;;;10.81;100.00
62948;BME280;51940;52.126;-0.994;2022-10-31T03:16:34;100525.26;;;10.78;100.00
62948;BME280;51940;52.126;-0.994;2022-10-31T03:19:08;100525.69;;;10.74;100.00
62948;BME280;51940;52.126;-0.994;2022-10-31T03:21:47;100525.96;;;10.70;100.00
62948;BME280;51940;52.126;-0.994;2022-10-31T03:24:15;100521.58;;;10.66;100.00
62948;BME280;51940;52.126;-0.994;2022-10-31T03:26:50;100513.98;;;10.63;100.00
62948;BME280;51940;52.126;-0.994;2022-10-31T03:29:20;100516.36;;;10.60;100.00
62948;BME280;51940;52.126;-0.994;2022-10-31T03:32:06;100517.66;;;10.58;100.00
62948;BME280;51940;52.126;-0.994;2022-10-31T03:34:36;100515.60;;;10.55;100.00
62948;BME280;51940;52.126;-0.994;2022-10-31T03:37:04;100514.75;;;10.53;100.00
62948;BME280;51940;52.126;-0.994;2022-10-31T03:39:32;100511.04;;;10.51;100.00
62948;BME280;51940;52.126;-0.994;2022-10-31T03:42:12;100504.28;;;10.50;100.00
62948;BME280;51940;52.126;-0.994;2022-10-31T03:44:41;100502.89;;;10.48;100.00
62948;BME280;51940;52.126;-0.994;2022-10-31T03:47:09;100501.14;;;10.47;100.00
62948;BME280;51940;52.126;-0.994;2022-10-31T03:49:35;100499.39;;;10.46;100.00
62948;BME280;51940;52.126;-0.994;2022-10-31T03:52:10;100504.04;;;10.45;100.00
62948;BME280;51940;52.126;-0.994;2022-10-31T03:54:44;100506.02;;;10.45;100.00
62948;BME280;51940;52.126;-0.994;2022-10-31T03:57:30;100500.69;;;10.44;100.00
62948;BME280;51940;52.126;-0.994;2022-10-31T04:00:13;100496.63;;;10.42;100.00
62948;BME280;51940;52.126;-0.994;2022-10-31T04:02:44;100496.30;;;10.40;100.00
62948;BME280;51940;52.126;-0.994;2022-10-31T04:05:12;100507.42;;;10.37;100.00
62948;BME280;51940;52.126;-0.994;2022-10-31T04:07:41;100509.25;;;10.35;100.00
62948;BME280;51940;52.126;-0.994;2022-10-31T04:10:12;100514.45;;;10.33;100.00
62948;BME280;51940;52.126;-0.994;2022-10-31T04:12:39;100512.20;;;10.31;100.00
62948;BME280;51940;52.126;-0.994;2022-10-31T04:15:06;100512.96;;;10.29;100.00
62948;BME280;51940;52.126;-0.994;2022-10-31T04:17:38;100507.46;;;10.27;100.00
62948;BME280;51940;52.126;-0.994;2022-10-31T04:20:05;100498.41;;;10.25;100.00
62948;BME280;51940;52.126;-0.994;2022-10-31T04:22:30;100487.73;;;10.24;100.00
62948;BME280;51940;52.126;-0.994;2022-10-31T04:24:56;100482.05;;;10.23;100.00
62948;BME280;51940;52.126;-0.994;2022-10-31T04:27:21;100484.91;;;10.22;100.00
62948;BME280;51940;52.126;-0.994;2022-10-31T04:29:47;100489.38;;;10.21;100.00
62948;BME280;51940;52.126;-0.994;2022-10-31T04:32:12;100495.44;;;10.21;100.00
62948;BME280;51940;52.126;-0.994;2022-10-31T04:34:37;100496.69;;;10.21;100.00
62948;BME280;51940;52.126;-0.994;2022-10-31T04:37:03;100494.55;;;10.21;100.00
62948;BME280;51940;52.126;-0.994;2022-10-31T04:39:28;100497.26;;;10.20;100.00
62948;BME280;51940;52.126;-0.994;2022-10-31T04:41:54;100500.28;;;10.20;100.00
62948;BME280;51940;52.126;-0.994;2022-10-31T04:44:19;100495.68;;;10.18;100.00
62948;BME280;51940;52.126;-0.994;2022-10-31T04:46:44;100496.77;;;10.16;100.00
62948;BME280;51940;52.126;-0.994;2022-10-31T04:49:10;100494.65;;;10.15;100.00
62948;BME280;51940;52.126;-0.994;2022-10-31T04:51:35;100488.09;;;10.14;100.00
62948;BME280;51940;52.126;-0.994;2022-10-31T04:54:00;100484.36;;;10.13;100.00
62948;BME280;51940;52.126;-0.994;2022-10-31T04:56:26;100477.81;;;10.11;100.00
62948;BME280;51940;52.126;-0.994;2022-10-31T04:58:51;100480.90;;;10.09;100.00
62948;BME280;51940;52.126;-0.994;2022-10-31T05:01:17;100476.66;;;10.06;100.00
62948;BME280;51940;52.126;-0.994;2022-10-31T05:03:42;100470.66;;;10.03;100.00
62948;BME280;51940;52.126;-0.994;2022-10-31T05:06:08;100468.79;;;10.00;100.00
62948;BME280;51940;52.126;-0.994;2022-10-31T05:08:33;100463.31;;;9.97;100.00
62948;BME280;51940;52.126;-0.994;2022-10-31T05:11:00;100463.17;;;9.95;100.00
62948;BME280;51940;52.126;-0.994;2022-10-31T05:13:26;100459.45;;;9.95;100.00
62948;BME280;51940;52.126;-0.994;2022-10-31T05:15:51;100459.23;;;9.96;100.00
62948;BME280;51940;52.126;-0.994;2022-10-31T05:18:16;100461.14;;;9.98;100.00
62948;BME280;51940;52.126;-0.994;2022-10-31T05:20:42;100464.48;;;10.01;100.00
62948;BME280;51940;52.126;-0.994;2022-10-31T05:23:07;100462.81;;;10.04;100.00
62948;BME280;51940;52.126;-0.994;2022-10-31T05:25:33;100459.00;;;10.07;100.00
62948;BME280;51940;52.126;-0.994;2022-10-31T05:27:58;100458.08;;;10.09;100.00
62948;BME280;51940;52.126;-0.994;2022-10-31T05:30:29;100454.28;;;10.11;100.00
62948;BME280;51940;52.126;-0.994;2022-10-31T05:32:55;100453.30;;;10.15;100.00
62948;BME280;51940;52.126;-0.994;2022-10-31T05:35:26;100447.03;;;10.16;100.00
62948;BME280;51940;52.126;-0.994;2022-10-31T05:37:52;100455.93;;;10.18;100.00
62948;BME280;51940;52.126;-0.994;2022-10-31T05:40:19;100455.75;;;10.18;100.00
62948;BME280;51940;52.126;-0.994;2022-10-31T05:42:45;100456.42;;;10.20;100.00
62948;BME280;51940;52.126;-0.994;2022-10-31T05:45:14;100453.55;;;10.21;100.00
62948;BME280;51940;52.126;-0.994;2022-10-31T05:47:40;100454.24;;;10.22;100.00
62948;BME280;51940;52.126;-0.994;2022-10-31T05:50:06;100453.16;;;10.24;100.00
62948;BME280;51940;52.126;-0.994;2022-10-31T05:52:32;100449.55;;;10.25;100.00
62948;BME280;51940;52.126;-0.994;2022-10-31T05:54:58;100450.45;;;10.26;100.00
62948;BME280;51940;52.126;-0.994;2022-10-31T05:57:23;100453.13;;;10.26;100.00
62948;BME280;51940;52.126;-0.994;2022-10-31T05:59:49;100451.70;;;10.25;100.00
62948;BME280;51940;52.126;-0.994;2022-10-31T06:02:18;100448.85;;;10.24;100.00
62948;BME280;51940;52.126;-0.994;2022-10-31T06:04:43;100450.64;;;10.26;100.00
62948;BME280;51940;52.126;-0.994;2022-10-31T06:07:09;100450.42;;;10.27;100.00
62948;BME280;51940;52.126;-0.994;2022-10-31T06:09:34;100448.28;;;10.27;100.00
62948;BME280;51940;52.126;-0.994;2022-10-31T06:12:00;100448.09;;;10.28;100.00
62948;BME280;51940;52.126;-0.994;2022-10-31T06:14:25;100446.27;;;10.29;100.00
62948;BME280;51940;52.126;-0.994;2022-10-31T06:16:50;100446.21;;;10.31;100.00
62948;BME280;51940;52.126;-0.994;2022-10-31T06:19:16;100449.37;;;10.33;100.00
62948;BME280;51940;52.126;-0.994;2022-10-31T06:21:41;100440.27;;;10.34;100.00
62948;BME280;51940;52.126;-0.994;2022-10-31T06:24:07;100445.23;;;10.36;100.00
62948;BME280;51940;52.126;-0.994;2022-10-31T06:26:32;100441.29;;;10.37;100.00
62948;BME280;51940;52.126;-0.994;2022-10-31T06:28:57;100435.77;;;10.36;100.00
62948;BME280;51940;52.126;-0.994;2022-10-31T06:31:23;100436.85;;;10.36;100.00
62948;BME280;51940;52.126;-0.994;2022-10-31T06:33:48;100436.68;;;10.35;100.00
62948;BME280;51940;52.126;-0.994;2022-10-31T06:36:13;100438.98;;;10.36;100.00
62948;BME280;51940;52.126;-0.994;2022-10-31T06:38:39;100433.10;;;10.36;100.00
62948;BME280;51940;52.126;-0.994;2022-10-31T06:41:05;100430.40;;;10.37;100.00
62948;BME280;51940;52.126;-0.994;2022-10-31T06:43:30;100429.70;;;10.37;100.00
62948;BME280;51940;52.126;-0.994;2022-10-31T06:45:56;100428.62;;;10.37;100.00
62948;BME280;51940;52.126;-0.994;2022-10-31T06:48:22;100430.06;;;10.36;100.00
62948;BME280;51940;52.126;-0.994;2022-10-31T06:50:48;100425.42;;;10.37;100.00
62948;BME280;51940;52.126;-0.994;2022-10-31T06:53:13;100425.83;;;10.35;100.00
62948;BME280;51940;52.126;-0.994;2022-10-31T06:55:40;100428.15;;;10.34;100.00
62948;BME280;51940;52.126;-0.994;2022-10-31T06:58:06;100424.96;;;10.33;100.00
62948;BME280;51940;52.126;-0.994;2022-10-31T07:00:31;100423.39;;;10.32;100.00
62948;BME280;51940;52.126;-0.994;2022-10-31T07:03:02;100420.92;;;10.31;100.00
62948;BME280;51940;52.126;-0.994;2022-10-31T07:05:29;100415.80;;;10.28;100.00
62948;BME280;51940;52.126;-0.994;2022-10-31T07:07:56;100418.52;;;10.27;100.00
62948;BME280;51940;52.126;-0.994;2022-10-31T07:10:23;100414.64;;;10.25;100.00
62948;BME280;51940;52.126;-0.994;2022-10-31T07:12:54;100416.47;;;10.23;100.00
62948;BME280;51940;52.126;-0.994;2022-10-31T07:15:19;100412.20;;;10.21;100.00
62948;BME280;51940;52.126;-0.994;2022-10-31T07:17:45;100409.54;;;10.21;100.00
62948;BME280;51940;52.126;-0.994;2022-10-31T07:20:10;100413.30;;;10.20;100.00
62948;BME280;51940;52.126;-0.994;2022-10-31T07:22:36;100414.35;;;10.21;100.00
62948;BME280;51940;52.126;-0.994;2022-10-31T07:25:02;100411.70;;;10.20;100.00
62948;BME280;51940;52.126;-0.994;2022-10-31T07:27:28;100416.84;;;10.21;100.00
62948;BME280;51940;52.126;-0.994;2022-10-31T07:29:53;100422.17;;;10.22;100.00
62948;BME280;51940;52.126;-0.994;2022-10-31T07:32:18;100419.85;;;10.23;100.00
62948;BME280;51940;52.126;-0.994;2022-10-31T07:34:44;100425.15;;;10.24;100.00
62948;BME280;51940;52.126;-0.994;2022-10-31T07:37:09;100421.39;;;10.26;100.00
62948;BME280;51940;52.126;-0.994;2022-10-31T07:39:35;100422.38;;;10.29;100.00
62948;BME280;51940;52.126;-0.994;2022-10-31T07:42:00;100425.55;;;10.31;100.00
62948;BME280;51940;52.126;-0.994;2022-10-31T07:44:26;100426.39;;;10.33;100.00
62948;BME280;51940;52.126;-0.994;2022-10-31T07:46:51;100423.51;;;10.35;100.00
62948;BME280;51940;52.126;-0.994;2022-10-31T07:49:16;100425.20;;;10.38;100.00
62948;BME280;51940;52.126;-0.994;2022-10-31T07:51:42;100427.09;;;10.41;100.00
62948;BME280;51940;52.126;-0.994;2022-10-31T07:54:07;100429.51;;;10.45;100.00
62948;BME280;51940;52.126;-0.994;2022-10-31T07:56:33;100424.75;;;10.51;100.00
62948;BME280;51940;52.126;-0.994;2022-10-31T07:58:58;100426.04;;;10.56;100.00
62948;BME280;51940;52.126;-0.994;2022-10-31T08:01:23;100426.96;;;10.62;100.00
62948;BME280;51940;52.126;-0.994;2022-10-31T08:03:49;100430.90;;;10.69;100.00
62948;BME280;51940;52.126;-0.994;2022-10-31T08:06:14;100434.11;;;10.77;100.00
62948;BME280;51940;52.126;-0.994;2022-10-31T08:08:40;100436.77;;;10.85;100.00
62948;BME280;51940;52.126;-0.994;2022-10-31T08:11:05;100433.73;;;10.92;100.00
62948;BME280;51940;52.126;-0.994;2022-10-31T08:13:31;100437.89;;;10.97;100.00
62948;BME280;51940;52.126;-0.994;2022-10-31T08:15:57;100437.06;;;11.01;100.00
62948;BME280;51940;52.126;-0.994;2022-10-31T08:18:28;100438.55;;;11.06;100.00
62948;BME280;51940;52.126;-0.994;2022-10-31T08:20:54;100430.41;;;11.10;100.00
62948;BME280;51940;52.126;-0.994;2022-10-31T08:23:20;100432.75;;;11.16;100.00
62948;BME280;51940;52.126;-0.994;2022-10-31T08:25:45;100425.80;;;11.23;100.00
62948;BME280;51940;52.126;-0.994;2022-10-31T08:28:13;100421.56;;;11.28;100.00
62948;BME280;51940;52.126;-0.994;2022-10-31T08:30:39;100426.08;;;11.33;100.00
62948;BME280;51940;52.126;-0.994;2022-10-31T08:33:12;100419.33;;;11.38;100.00
62948;BME280;51940;52.126;-0.994;2022-10-31T08:35:38;100416.62;;;11.46;100.00
62948;BME280;51940;52.126;-0.994;2022-10-31T08:38:04;100417.99;;;11.54;100.00
62948;BME280;51940;52.126;-0.994;2022-10-31T08:40:31;100416.15;;;11.63;100.00
62948;BME280;51940;52.126;-0.994;2022-10-31T08:43:02;100414.35;;;11.69;100.00
62948;BME280;51940;52.126;-0.994;2022-10-31T08:45:29;100412.73;;;11.76;100.00
62948;BME280;51940;52.126;-0.994;2022-10-31T08:48:03;100416.17;;;11.81;100.00
62948;BME280;51940;52.126;-0.994;2022-10-31T08:50:30;100411.69;;;11.89;100.00
62948;BME280;51940;52.126;-0.994;2022-10-31T08:53:09;100410.80;;;11.94;100.00
62948;BME280;51940;52.126;-0.994;2022-10-31T08:55:36;100406.78;;;12.03;100.00
62948;BME280;51940;52.126;-0.994;2022-10-31T08:58:03;100405.59;;;12.13;100.00
62948;BME280;51940;52.126;-0.994;2022-10-31T09:00:31;100406.69;;;12.18;100.00
62948;BME280;51940;52.126;-0.994;2022-10-31T09:03:10;100403.73;;;12.21;100.00
62948;BME280;51940;52.126;-0.994;2022-10-31T09:05:36;100397.48;;;12.27;100.00
62948;BME280;51940;52.126;-0.994;2022-10-31T09:08:03;100396.93;;;12.33;100.00
62948;BME280;51940;52.126;-0.994;2022-10-31T09:10:30;100397.88;;;12.37;100.00
62948;BME280;51940;52.126;-0.994;2022-10-31T09:13:00;100397.27;;;12.39;100.00
62948;BME280;51940;52.126;-0.994;2022-10-31T09:15:26;100390.08;;;12.40;100.00
62948;BME280;51940;52.126;-0.994;2022-10-31T09:17:54;100389.20;;;12.45;100.00
62948;BME280;51940;52.126;-0.994;2022-10-31T09:20:20;100383.55;;;12.55;100.00
62948;BME280;51940;52.126;-0.994;2022-10-31T09:22:45;100381.23;;;12.65;100.00
62948;BME280;51940;52.126;-0.994;2022-10-31T09:25:11;100372.77;;;12.72;100.00
62948;BME280;51940;52.126;-0.994;2022-10-31T09:27:37;100371.53;;;12.77;100.00
62948;BME280;51940;52.126;-0.994;2022-10-31T09:30:03;100367.67;;;12.80;100.00
62948;BME280;51940;52.126;-0.994;2022-10-31T09:32:29;100366.61;;;12.85;100.00
62948;BME280;51940;52.126;-0.994;2022-10-31T09:34:54;100367.30;;;12.91;100.00
62948;BME280;51940;52.126;-0.994;2022-10-31T09:37:19;100372.63;;;12.97;100.00
62948;BME280;51940;52.126;-0.994;2022-10-31T09:39:45;100366.96;;;13.01;100.00
62948;BME280;51940;52.126;-0.994;2022-10-31T09:42:41;100365.34;;;13.06;100.00
62948;BME280;51940;52.126;-0.994;2022-10-31T09:45:27;100359.20;;;13.13;100.00
62948;BME280;51940;52.126;-0.994;2022-10-31T09:50:52;100353.41;;;13.26;100.00
62948;BME280;51940;52.126;-0.994;2022-10-31T09:55:57;100343.66;;;13.38;100.00
62948;BME280;51940;52.126;-0.994;2022-10-31T09:58:26;100345.12;;;13.47;100.00
62948;BME280;51940;52.126;-0.994;2022-10-31T10:00:57;100343.59;;;13.59;100.00
62948;BME280;51940;52.126;-0.994;2022-10-31T10:03:34;100342.13;;;13.69;100.00
62948;BME280;51940;52.126;-0.994;2022-10-31T10:06:17;100340.06;;;13.81;100.00
62948;BME280;51940;52.126;-0.994;2022-10-31T10:08:44;100336.79;;;13.96;100.00
62948;BME280;51940;52.126;-0.994;2022-10-31T10:11:42;100333.77;;;14.05;100.00
62948;BME280;51940;52.126;-0.994;2022-10-31T10:25:22;100321.98;;;14.34;100.00
62948;BME280;51940;52.126;-0.994;2022-10-31T10:30:44;100322.70;;;14.44;100.00
62948;BME280;51940;52.126;-0.994;2022-10-31T10:33:33;100324.95;;;14.55;100.00
62948;BME280;51940;52.126;-0.994;2022-10-31T10:36:04;100316.56;;;14.62;100.00
62948;BME280;51940;52.126;-0.994;2022-10-31T10:41:17;100314.02;;;14.76;100.00
62948;BME280;51940;52.126;-0.994;2022-10-31T10:43:43;100310.85;;;14.83;100.00
62948;BME280;51940;52.126;-0.994;2022-10-31T10:52:13;100300.81;;;15.19;100.00
62948;BME280;51940;52.126;-0.994;2022-10-31T10:55:12;100290.90;;;15.23;100.00
62948;BME280;51940;52.126;-0.994;2022-10-31T10:57:52;100291.77;;;15.28;100.00
62948;BME280;51940;52.126;-0.994;2022-10-31T11:00:30;100287.75;;;15.26;100.00
62948;BME280;51940;52.126;-0.994;2022-10-31T11:02:57;100284.95;;;15.28;100.00
62948;BME280;51940;52.126;-0.994;2022-10-31T11:05:39;100284.77;;;15.32;100.00
62948;BME280;51940;52.126;-0.994;2022-10-31T11:08:07;100282.66;;;15.39;100.00
62948;BME280;51940;52.126;-0.994;2022-10-31T11:10:34;100277.97;;;15.47;100.00
62948;BME280;51940;52.126;-0.994;2022-10-31T11:15:31;100254.05;;;15.55;100.00
62948;BME280;51940;52.126;-0.994;2022-10-31T11:17:57;100248.80;;;15.56;100.00
62948;BME280;51940;52.126;-0.994;2022-10-31T11:20:30;100243.63;;;15.55;100.00
62948;BME280;51940;52.126;-0.994;2022-10-31T11:23:15;100243.05;;;15.52;100.00
62948;BME280;51940;52.126;-0.994;2022-10-31T11:25:48;100238.86;;;15.49;100.00
62948;BME280;51940;52.126;-0.994;2022-10-31T11:28:14;100238.21;;;15.48;100.00
62948;BME280;51940;52.126;-0.994;2022-10-31T11:30:46;100236.31;;;15.46;100.00
62948;BME280;51940;52.126;-0.994;2022-10-31T11:36:13;100233.25;;;15.47;100.00
62948;BME280;51940;52.126;-0.994;2022-10-31T11:38:42;100232.27;;;15.48;100.00
62948;BME280;51940;52.126;-0.994;2022-10-31T11:41:12;100225.06;;;15.52;100.00
62948;BME280;51940;52.126;-0.994;2022-10-31T11:43:44;100222.04;;;15.51;100.00
62948;BME280;51940;52.126;-0.994;2022-10-31T11:46:12;100216.33;;;15.47;100.00
62948;BME280;51940;52.126;-0.994;2022-10-31T11:48:49;100212.09;;;15.42;100.00
62948;BME280;51940;52.126;-0.994;2022-10-31T11:51:28;100209.36;;;15.35;100.00
62948;BME280;51940;52.126;-0.994;2022-10-31T11:53:56;100203.98;;;15.31;100.00
62948;BME280;51940;52.126;-0.994;2022-10-31T11:56:23;100193.27;;;15.33;100.00
62948;BME280;51940;52.126;-0.994;2022-10-31T11:59:02;100187.67;;;15.41;100.00
62948;BME280;51940;52.126;-0.994;2022-10-31T12:01:30;100183.40;;;15.51;100.00
62948;BME280;51940;52.126;-0.994;2022-10-31T12:04:09;100182.03;;;15.62;100.00
62948;BME280;51940;52.126;-0.994;2022-10-31T12:06:39;100170.35;;;15.73;100.00
62948;BME280;51940;52.126;-0.994;2022-10-31T12:09:30;100164.31;;;15.86;100.00
62948;BME280;51940;52.126;-0.994;2022-10-31T12:17:55;100145.08;;;16.07;100.00
62948;BME280;51940;52.126;-0.994;2022-10-31T12:20:48;100145.66;;;16.06;100.00
62948;BME280;51940;52.126;-0.994;2022-10-31T12:23:22;100148.64;;;16.08;100.00
62948;BME280;51940;52.126;-0.994;2022-10-31T12:36:12;100123.73;;;15.77;100.00
62948;BME280;51940;52.126;-0.994;2022-10-31T12:39:07;100112.48;;;15.69;100.00
62948;BME280;51940;52.126;-0.994;2022-10-31T12:41:57;100105.56;;;15.59;100.00
62948;BME280;51940;52.126;-0.994;2022-10-31T12:58:31;100086.84;;;15.56;100.00
62948;BME280;51940;52.126;-0.994;2022-10-31T13:01:09;100073.84;;;15.57;100.00
62948;BME280;51940;52.126;-0.994;2022-10-31T13:06:37;100051.00;;;15.65;100.00
62948;BME280;51940;52.126;-0.994;2022-10-31T13:09:11;100049.06;;;15.67;100.00
62948;BME280;51940;52.126;-0.994;2022-10-31T13:11:42;100039.67;;;15.69;100.00
62948;BME280;51940;52.126;-0.994;2022-10-31T13:14:16;100026.89;;;15.65;100.00
62948;BME280;51940;52.126;-0.994;2022-10-31T13:16:46;100024.61;;;15.60;100.00
62948;BME280;51940;52.126;-0.994;2022-10-31T13:19:33;100025.89;;;15.56;100.00
62948;BME280;51940;52.126;-0.994;2022-10-31T13:22:26;100019.89;;;15.54;100.00
62948;BME280;51940;52.126;-0.994;2022-10-31T13:24:57;100011.95;;;15.51;100.00
62948;BME280;51940;52.126;-0.994;2022-10-31T13:30:21;100007.38;;;15.45;100.00
62948;BME280;51940;52.126;-0.994;2022-10-31T13:40:50;99980.84;;;15.30;100.00
62948;BME280;51940;52.126;-0.994;2022-10-31T13:45:54;99962.63;;;15.28;100.00
62948;BME280;51940;52.126;-0.994;2022-10-31T13:48:34;99955.98;;;15.28;100.00
62948;BME280;51940;52.126;-0.994;2022-10-31T13:51:09;99954.10;;;15.30;100.00
62948;BME280;51940;52.126;-0.994;2022-10-31T13:59:17;99931.06;;;15.34;100.00
62948;BME280;51940;52.126;-0.994;2022-10-31T14:01:58;99921.75;;;15.36;100.00
62948;BME280;51940;52.126;-0.994;2022-10-31T14:04:29;99919.56;;;15.41;100.00
62948;BME280;51940;52.126;-0.994;2022-10-31T14:07:10;99921.76;;;15.43;100.00
62948;BME280;51940;52.126;-0.994;2022-10-31T14:12:41;99909.19;;;15.40;100.00
62948;BME280;51940;52.126;-0.994;2022-10-31T14:15:19;99901.68;;;15.35;100.00
62948;BME280;51940;52.126;-0.994;2022-10-31T14:17:48;99902.02;;;15.29;100.00
62948;BME280;51940;52.126;-0.994;2022-10-31T14:22:41;99888.98;;;15.16;100.00
62948;BME280;51940;52.126;-0.994;2022-10-31T14:27:58;99881.06;;;15.06;100.00
62948;BME280;51940;52.126;-0.994;2022-10-31T14:30:27;99870.09;;;15.03;100.00
62948;BME280;51940;52.126;-0.994;2022-10-31T14:33:01;99867.69;;;15.01;100.00